sensor_id;sensor_type;location;lat;lon;timestamp;P1;durP1;ratioP1;P2;durP2;ratioP2
32786;SDS011;19139;49.372;8.580;2023-07-02T00:02:25;1.17;;;0.70;;
32786;SDS011;19139;49.372;8.580;2023-07-02T00:04:52;0.60;;;0.53;;
32786;SDS011;19139;49.372;8.580;2023-07-02T00:07:18;0.70;;;0.70;;
32786;SDS011;19139;49.372;8.580;2023-07-02T00:09:45;0.70;;;0.60;;
32786;SDS011;19139;49.372;8.580;2023-07-02T00:12:12;1.23;;;0.77;;
32786;SDS011;19139;49.372;8.580;2023-07-02T00:14:39;0.77;;;0.70;;
32786;SDS011;19139;49.372;8.580;2023-07-02T00:17:06;0.90;;;0.67;;
32786;SDS011;19139;49.372;8.580;2023-07-02T00:19:33;0.90;;;0.73;;
32786;SDS011;19139;49.372;8.580;2023-07-02T00:21:59;0.87;;;0.70;;
32786;SDS011;19139;49.372;8.580;2023-07-02T00:24:26;0.70;;;0.50;;
32786;SDS011;19139;49.372;8.580;2023-07-02T00:26:53;0.90;;;0.70;;
32786;SDS011;19139;49.372;8.580;2023-07-02T00:29:19;0.70;;;0.60;;
32786;SDS011;19139;49.372;8.580;2023-07-02T00:31:46;1.90;;;1.00;;
32786;SDS011;19139;49.372;8.580;2023-07-02T00:34:12;0.90;;;0.80;;
32786;SDS011;19139;49.372;8.580;2023-07-02T00:36:39;0.50;;;0.50;;
32786;SDS011;19139;49.372;8.580;2023-07-02T00:39:07;0.77;;;0.77;;
32786;SDS011;19139;49.372;8.580;2023-07-02T00:41:34;0.73;;;0.60;;
32786;SDS011;19139;49.372;8.580;2023-07-02T00:44:01;1.00;;;0.77;;
32786;SDS011;19139;49.372;8.580;2023-07-02T00:46:27;0.80;;;0.60;;
32786;SDS011;19139;49.372;8.580;2023-07-02T00:48:54;1.47;;;0.80;;
32786;SDS011;19139;49.372;8.580;2023-07-02T00:51:22;0.70;;;0.60;;
32786;SDS011;19139;49.372;8.580;2023-07-02T00:53:55;1.13;;;0.90;;
32786;SDS011;19139;49.372;8.580;2023-07-02T00:56:23;0.97;;;0.80;;
32786;SDS011;19139;49.372;8.580;2023-07-02T00:58:52;0.80;;;0.73;;
32786;SDS011;19139;49.372;8.580;2023-07-02T01:01:21;0.80;;;0.73;;
32786;SDS011;19139;49.372;8.580;2023-07-02T01:03:53;0.63;;;0.63;;
32786;SDS011;19139;49.372;8.580;2023-07-02T01:06:23;1.33;;;0.87;;
32786;SDS011;19139;49.372;8.580;2023-07-02T01:08:55;0.70;;;0.70;;
32786;SDS011;19139;49.372;8.580;2023-07-02T01:11:25;1.00;;;0.57;;
32786;SDS011;19139;49.372;8.580;2023-07-02T01:14:02;0.83;;;0.60;;
32786;SDS011;19139;49.372;8.580;2023-07-02T01:16:32;0.70;;;0.60;;
32786;SDS011;19139;49.372;8.580;2023-07-02T01:19:02;0.90;;;0.70;;
32786;SDS011;19139;49.372;8.580;2023-07-02T01:21:31;0.90;;;0.73;;
32786;SDS011;19139;49.372;8.580;2023-07-02T01:23:59;0.80;;;0.80;;
32786;SDS011;19139;49.372;8.580;2023-07-02T01:26:28;0.90;;;0.77;;
32786;SDS011;19139;49.372;8.580;2023-07-02T01:29:00;0.90;;;0.80;;
32786;SDS011;19139;49.372;8.580;2023-07-02T01:31:43;1.03;;;0.90;;
32786;SDS011;19139;49.372;8.580;2023-07-02T01:34:11;0.97;;;0.90;;
32786;SDS011;19139;49.372;8.580;2023-07-02T01:36:38;1.13;;;1.07;;
32786;SDS011;19139;49.372;8.580;2023-07-02T01:39:04;0.90;;;0.77;;
32786;SDS011;19139;49.372;8.580;2023-07-02T01:41:36;0.67;;;0.67;;
32786;SDS011;19139;49.372;8.580;2023-07-02T01:44:11;0.60;;;0.60;;
32786;SDS011;19139;49.372;8.580;2023-07-02T01:46:37;0.60;;;0.50;;
32786;SDS011;19139;49.372;8.580;2023-07-02T01:49:04;0.70;;;0.70;;
32786;SDS011;19139;49.372;8.580;2023-07-02T01:51:31;0.67;;;0.67;;
32786;SDS011;19139;49.372;8.580;2023-07-02T01:53:58;0.70;;;0.60;;
32786;SDS011;19139;49.372;8.580;2023-07-02T01:56:24;1.00;;;0.90;;
32786;SDS011;19139;49.372;8.580;2023-07-02T01:58:52;0.67;;;0.60;;
32786;SDS011;19139;49.372;8.580;2023-07-02T02:01:19;0.93;;;0.70;;
32786;SDS011;19139;49.372;8.580;2023-07-02T02:03:46;0.80;;;0.60;;
32786;SDS011;19139;49.372;8.580;2023-07-02T02:06:13;0.80;;;0.70;;
32786;SDS011;19139;49.372;8.580;2023-07-02T02:08:39;0.70;;;0.70;;
32786;SDS011;19139;49.372;8.580;2023-07-02T02:11:06;1.00;;;0.90;;
32786;SDS011;19139;49.372;8.580;2023-07-02T02:13:32;0.77;;;0.60;;
32786;SDS011;19139;49.372;8.580;2023-07-02T02:15:59;1.17;;;0.80;;
32786;SDS011;19139;49.372;8.580;2023-07-02T02:18:26;0.73;;;0.73;;
32786;SDS011;19139;49.372;8.580;2023-07-02T02:20:52;0.97;;;0.87;;
32786;SDS011;19139;49.372;8.580;2023-07-02T02:23:19;0.63;;;0.60;;
32786;SDS011;19139;49.372;8.580;2023-07-02T02:25:46;1.20;;;0.77;;
32786;SDS011;19139;49.372;8.580;2023-07-02T02:28:12;1.00;;;0.90;;
32786;SDS011;19139;49.372;8.580;2023-07-02T02:30:39;0.70;;;0.60;;
32786;SDS011;19139;49.372;8.580;2023-07-02T02:33:06;0.93;;;0.80;;
32786;SDS011;19139;49.372;8.580;2023-07-02T02:35:32;0.80;;;0.80;;
32786;SDS011;19139;49.372;8.580;2023-07-02T02:38:02;1.07;;;0.80;;
32786;SDS011;19139;49.372;8.580;2023-07-02T02:40:29;1.10;;;0.77;;
32786;SDS011;19139;49.372;8.580;2023-07-02T02:42:55;0.93;;;0.77;;
32786;SDS011;19139;49.372;8.580;2023-07-02T02:45:22;2.50;;;1.10;;
32786;SDS011;19139;49.372;8.580;2023-07-02T02:47:49;0.73;;;0.60;;
32786;SDS011;19139;49.372;8.580;2023-07-02T02:50:15;0.73;;;0.70;;
32786;SDS011;19139;49.372;8.580;2023-07-02T02:52:42;0.70;;;0.70;;
32786;SDS011;19139;49.372;8.580;2023-07-02T02:55:09;0.70;;;0.63;;
32786;SDS011;19139;49.372;8.580;2023-07-02T02:57:38;1.30;;;0.60;;
32786;SDS011;19139;49.372;8.580;2023-07-02T03:00:05;0.80;;;0.50;;
32786;SDS011;19139;49.372;8.580;2023-07-02T03:02:33;0.80;;;0.80;;
32786;SDS011;19139;49.372;8.580;2023-07-02T03:04:59;0.60;;;0.60;;
32786;SDS011;19139;49.372;8.580;2023-07-02T03:07:29;0.80;;;0.60;;
32786;SDS011;19139;49.372;8.580;2023-07-02T03:09:57;1.40;;;0.90;;
32786;SDS011;19139;49.372;8.580;2023-07-02T03:12:26;0.87;;;0.70;;
32786;SDS011;19139;49.372;8.580;2023-07-02T03:14:53;0.90;;;0.70;;
32786;SDS011;19139;49.372;8.580;2023-07-02T03:17:21;0.90;;;0.80;;
32786;SDS011;19139;49.372;8.580;2023-07-02T03:19:48;0.60;;;0.50;;
32786;SDS011;19139;49.372;8.580;2023-07-02T03:22:16;0.70;;;0.67;;
32786;SDS011;19139;49.372;8.580;2023-07-02T03:24:42;0.90;;;0.70;;
32786;SDS011;19139;49.372;8.580;2023-07-02T03:27:09;1.50;;;1.00;;
32786;SDS011;19139;49.372;8.580;2023-07-02T03:29:36;1.20;;;1.00;;
32786;SDS011;19139;49.372;8.580;2023-07-02T03:32:04;1.07;;;0.80;;
32786;SDS011;19139;49.372;8.580;2023-07-02T03:34:31;1.23;;;0.70;;
32786;SDS011;19139;49.372;8.580;2023-07-02T03:36:58;0.70;;;0.60;;
32786;SDS011;19139;49.372;8.580;2023-07-02T03:39:24;0.90;;;0.70;;
32786;SDS011;19139;49.372;8.580;2023-07-02T03:41:51;0.77;;;0.77;;
32786;SDS011;19139;49.372;8.580;2023-07-02T03:44:18;1.00;;;0.80;;
32786;SDS011;19139;49.372;8.580;2023-07-02T03:46:45;0.63;;;0.50;;
32786;SDS011;19139;49.372;8.580;2023-07-02T03:49:12;1.37;;;0.83;;
32786;SDS011;19139;49.372;8.580;2023-07-02T03:51:39;1.00;;;0.90;;
32786;SDS011;19139;49.372;8.580;2023-07-02T03:54:06;0.83;;;0.67;;
32786;SDS011;19139;49.372;8.580;2023-07-02T03:56:32;0.70;;;0.70;;
32786;SDS011;19139;49.372;8.580;2023-07-02T03:58:59;2.40;;;1.00;;
32786;SDS011;19139;49.372;8.580;2023-07-02T04:01:26;3.73;;;1.20;;
32786;SDS011;19139;49.372;8.580;2023-07-02T04:03:53;0.97;;;0.83;;
32786;SDS011;19139;49.372;8.580;2023-07-02T04:06:20;1.30;;;1.20;;
32786;SDS011;19139;49.372;8.580;2023-07-02T04:08:46;1.07;;;0.90;;
32786;SDS011;19139;49.372;8.580;2023-07-02T04:11:13;0.80;;;0.70;;
32786;SDS011;19139;49.372;8.580;2023-07-02T04:13:40;0.87;;;0.73;;
32786;SDS011;19139;49.372;8.580;2023-07-02T04:16:07;1.43;;;1.00;;
32786;SDS011;19139;49.372;8.580;2023-07-02T04:18:34;1.00;;;0.83;;
32786;SDS011;19139;49.372;8.580;2023-07-02T04:21:01;0.97;;;0.80;;
32786;SDS011;19139;49.372;8.580;2023-07-02T04:23:28;0.90;;;0.80;;
32786;SDS011;19139;49.372;8.580;2023-07-02T04:25:56;1.00;;;0.60;;
32786;SDS011;19139;49.372;8.580;2023-07-02T04:28:43;1.00;;;0.90;;
32786;SDS011;19139;49.372;8.580;2023-07-02T04:31:09;1.33;;;0.80;;
32786;SDS011;19139;49.372;8.580;2023-07-02T04:33:36;1.37;;;0.90;;
32786;SDS011;19139;49.372;8.580;2023-07-02T04:36:03;0.93;;;0.70;;
32786;SDS011;19139;49.372;8.580;2023-07-02T04:38:30;1.07;;;0.80;;
32786;SDS011;19139;49.372;8.580;2023-07-02T04:40:56;0.90;;;0.90;;
32786;SDS011;19139;49.372;8.580;2023-07-02T04:43:32;1.00;;;0.70;;
32786;SDS011;19139;49.372;8.580;2023-07-02T04:45:59;0.87;;;0.80;;
32786;SDS011;19139;49.372;8.580;2023-07-02T04:48:26;1.40;;;0.90;;
32786;SDS011;19139;49.372;8.580;2023-07-02T04:50:53;1.00;;;1.00;;
32786;SDS011;19139;49.372;8.580;2023-07-02T04:53:20;1.30;;;0.80;;
32786;SDS011;19139;49.372;8.580;2023-07-02T04:55:47;1.30;;;0.90;;
32786;SDS011;19139;49.372;8.580;2023-07-02T04:58:13;1.10;;;1.00;;
32786;SDS011;19139;49.372;8.580;2023-07-02T05:00:40;1.30;;;1.00;;
32786;SDS011;19139;49.372;8.580;2023-07-02T05:03:07;1.40;;;1.00;;
32786;SDS011;19139;49.372;8.580;2023-07-02T05:05:34;0.90;;;0.70;;
32786;SDS011;19139;49.372;8.580;2023-07-02T05:08:01;1.70;;;1.27;;
32786;SDS011;19139;49.372;8.580;2023-07-02T05:10:27;1.33;;;0.97;;
32786;SDS011;19139;49.372;8.580;2023-07-02T05:12:54;1.00;;;0.83;;
32786;SDS011;19139;49.372;8.580;2023-07-02T05:15:20;1.20;;;0.90;;
32786;SDS011;19139;49.372;8.580;2023-07-02T05:17:47;1.50;;;1.10;;
32786;SDS011;19139;49.372;8.580;2023-07-02T05:20:14;1.37;;;1.20;;
32786;SDS011;19139;49.372;8.580;2023-07-02T05:22:41;1.00;;;0.70;;
32786;SDS011;19139;49.372;8.580;2023-07-02T05:25:08;0.90;;;0.80;;
32786;SDS011;19139;49.372;8.580;2023-07-02T05:27:35;1.10;;;0.90;;
32786;SDS011;19139;49.372;8.580;2023-07-02T05:30:01;0.97;;;0.70;;
32786;SDS011;19139;49.372;8.580;2023-07-02T05:32:29;1.10;;;0.97;;
32786;SDS011;19139;49.372;8.580;2023-07-02T05:34:55;1.00;;;0.90;;
32786;SDS011;19139;49.372;8.580;2023-07-02T05:37:22;1.10;;;0.97;;
32786;SDS011;19139;49.372;8.580;2023-07-02T05:39:49;2.00;;;1.10;;
32786;SDS011;19139;49.372;8.580;2023-07-02T05:42:16;1.10;;;0.90;;
32786;SDS011;19139;49.372;8.580;2023-07-02T05:44:42;1.73;;;1.20;;
32786;SDS011;19139;49.372;8.580;2023-07-02T05:47:09;1.40;;;1.20;;
32786;SDS011;19139;49.372;8.580;2023-07-02T05:49:36;1.17;;;1.07;;
32786;SDS011;19139;49.372;8.580;2023-07-02T05:52:03;1.13;;;0.97;;
32786;SDS011;19139;49.372;8.580;2023-07-02T05:54:29;1.23;;;0.90;;
32786;SDS011;19139;49.372;8.580;2023-07-02T05:56:56;1.27;;;1.00;;
32786;SDS011;19139;49.372;8.580;2023-07-02T05:59:23;1.30;;;1.03;;
32786;SDS011;19139;49.372;8.580;2023-07-02T06:01:49;1.40;;;1.30;;
32786;SDS011;19139;49.372;8.580;2023-07-02T06:04:16;2.33;;;1.27;;
32786;SDS011;19139;49.372;8.580;2023-07-02T06:06:43;1.57;;;1.23;;
32786;SDS011;19139;49.372;8.580;2023-07-02T06:09:09;1.40;;;1.10;;
32786;SDS011;19139;49.372;8.580;2023-07-02T06:11:36;1.40;;;1.10;;
32786;SDS011;19139;49.372;8.580;2023-07-02T06:14:04;1.63;;;1.53;;
32786;SDS011;19139;49.372;8.580;2023-07-02T06:16:30;1.33;;;1.20;;
32786;SDS011;19139;49.372;8.580;2023-07-02T06:18:57;1.60;;;1.17;;
32786;SDS011;19139;49.372;8.580;2023-07-02T06:21:24;2.33;;;1.70;;
32786;SDS011;19139;49.372;8.580;2023-07-02T06:23:56;2.47;;;1.63;;
32786;SDS011;19139;49.372;8.580;2023-07-02T06:26:27;2.00;;;1.40;;
32786;SDS011;19139;49.372;8.580;2023-07-02T06:28:54;1.83;;;1.40;;
32786;SDS011;19139;49.372;8.580;2023-07-02T06:31:20;1.93;;;1.67;;
32786;SDS011;19139;49.372;8.580;2023-07-02T06:33:48;2.57;;;1.60;;
32786;SDS011;19139;49.372;8.580;2023-07-02T06:36:15;2.90;;;1.80;;
32786;SDS011;19139;49.372;8.580;2023-07-02T06:38:43;2.07;;;1.57;;
32786;SDS011;19139;49.372;8.580;2023-07-02T06:41:10;2.47;;;1.70;;
32786;SDS011;19139;49.372;8.580;2023-07-02T06:43:37;2.40;;;1.90;;
32786;SDS011;19139;49.372;8.580;2023-07-02T06:46:04;2.03;;;1.67;;
32786;SDS011;19139;49.372;8.580;2023-07-02T06:48:30;2.00;;;1.77;;
32786;SDS011;19139;49.372;8.580;2023-07-02T06:50:57;2.40;;;2.07;;
32786;SDS011;19139;49.372;8.580;2023-07-02T06:53:24;3.00;;;2.03;;
32786;SDS011;19139;49.372;8.580;2023-07-02T06:55:50;2.17;;;1.87;;
32786;SDS011;19139;49.372;8.580;2023-07-02T06:58:17;2.97;;;1.90;;
32786;SDS011;19139;49.372;8.580;2023-07-02T07:00:44;2.10;;;1.90;;
32786;SDS011;19139;49.372;8.580;2023-07-02T07:03:11;2.40;;;2.10;;
32786;SDS011;19139;49.372;8.580;2023-07-02T07:05:38;2.23;;;1.97;;
32786;SDS011;19139;49.372;8.580;2023-07-02T07:08:05;2.23;;;1.90;;
32786;SDS011;19139;49.372;8.580;2023-07-02T07:10:31;2.90;;;2.10;;
32786;SDS011;19139;49.372;8.580;2023-07-02T07:13:01;3.00;;;2.20;;
32786;SDS011;19139;49.372;8.580;2023-07-02T07:15:32;2.30;;;1.90;;
32786;SDS011;19139;49.372;8.580;2023-07-02T07:18:03;3.80;;;2.90;;
32786;SDS011;19139;49.372;8.580;2023-07-02T07:20:30;8.43;;;6.73;;
32786;SDS011;19139;49.372;8.580;2023-07-02T07:22:57;11.60;;;8.13;;
32786;SDS011;19139;49.372;8.580;2023-07-02T07:25:24;12.53;;;9.20;;
32786;SDS011;19139;49.372;8.580;2023-07-02T07:27:51;12.43;;;8.73;;
32786;SDS011;19139;49.372;8.580;2023-07-02T07:30:18;16.60;;;10.33;;
32786;SDS011;19139;49.372;8.580;2023-07-02T07:32:49;15.07;;;10.97;;
32786;SDS011;19139;49.372;8.580;2023-07-02T07:35:17;14.30;;;11.03;;
32786;SDS011;19139;49.372;8.580;2023-07-02T07:37:44;16.43;;;11.40;;
32786;SDS011;19139;49.372;8.580;2023-07-02T07:40:11;18.27;;;11.03;;
32786;SDS011;19139;49.372;8.580;2023-07-02T07:42:38;18.87;;;11.17;;
32786;SDS011;19139;49.372;8.580;2023-07-02T07:45:06;15.40;;;10.63;;
32786;SDS011;19139;49.372;8.580;2023-07-02T07:47:33;17.83;;;12.27;;
32786;SDS011;19139;49.372;8.580;2023-07-02T07:50:00;17.90;;;13.00;;
32786;SDS011;19139;49.372;8.580;2023-07-02T07:52:26;17.20;;;12.57;;
32786;SDS011;19139;49.372;8.580;2023-07-02T07:54:53;18.30;;;12.23;;
32786;SDS011;19139;49.372;8.580;2023-07-02T07:57:20;15.87;;;11.73;;
32786;SDS011;19139;49.372;8.580;2023-07-02T07:59:46;20.53;;;11.70;;
32786;SDS011;19139;49.372;8.580;2023-07-02T08:02:13;17.33;;;12.30;;
32786;SDS011;19139;49.372;8.580;2023-07-02T08:04:40;18.53;;;11.73;;
32786;SDS011;19139;49.372;8.580;2023-07-02T08:07:06;19.43;;;12.90;;
32786;SDS011;19139;49.372;8.580;2023-07-02T08:09:35;19.27;;;12.40;;
32786;SDS011;19139;49.372;8.580;2023-07-02T08:12:02;24.03;;;13.53;;
32786;SDS011;19139;49.372;8.580;2023-07-02T08:14:29;19.67;;;13.47;;
32786;SDS011;19139;49.372;8.580;2023-07-02T08:16:55;21.73;;;14.33;;
32786;SDS011;19139;49.372;8.580;2023-07-02T08:19:22;23.83;;;14.90;;
32786;SDS011;19139;49.372;8.580;2023-07-02T08:21:52;21.73;;;14.47;;
32786;SDS011;19139;49.372;8.580;2023-07-02T08:24:19;24.33;;;14.30;;
32786;SDS011;19139;49.372;8.580;2023-07-02T08:26:46;24.83;;;15.20;;
32786;SDS011;19139;49.372;8.580;2023-07-02T08:29:14;20.67;;;15.13;;
32786;SDS011;19139;49.372;8.580;2023-07-02T08:31:40;23.70;;;15.60;;
32786;SDS011;19139;49.372;8.580;2023-07-02T08:34:07;21.17;;;15.03;;
32786;SDS011;19139;49.372;8.580;2023-07-02T08:36:34;20.40;;;15.03;;
32786;SDS011;19139;49.372;8.580;2023-07-02T08:39:01;22.73;;;16.03;;
32786;SDS011;19139;49.372;8.580;2023-07-02T08:41:28;21.33;;;15.77;;
32786;SDS011;19139;49.372;8.580;2023-07-02T08:43:55;27.27;;;16.93;;
32786;SDS011;19139;49.372;8.580;2023-07-02T08:46:24;24.40;;;16.13;;
32786;SDS011;19139;49.372;8.580;2023-07-02T08:48:51;24.07;;;15.03;;
32786;SDS011;19139;49.372;8.580;2023-07-02T08:51:18;22.00;;;14.70;;
32786;SDS011;19139;49.372;8.580;2023-07-02T08:53:47;20.40;;;15.60;;
32786;SDS011;19139;49.372;8.580;2023-07-02T08:56:14;24.40;;;16.50;;
32786;SDS011;19139;49.372;8.580;2023-07-02T08:58:40;24.57;;;14.80;;
32786;SDS011;19139;49.372;8.580;2023-07-02T09:01:08;25.27;;;15.83;;
32786;SDS011;19139;49.372;8.580;2023-07-02T09:03:36;20.83;;;16.30;;
32786;SDS011;19139;49.372;8.580;2023-07-02T09:06:08;21.00;;;15.80;;
32786;SDS011;19139;49.372;8.580;2023-07-02T09:08:35;21.00;;;14.43;;
32786;SDS011;19139;49.372;8.580;2023-07-02T09:11:09;19.37;;;14.83;;
32786;SDS011;19139;49.372;8.580;2023-07-02T09:13:50;20.60;;;15.47;;
32786;SDS011;19139;49.372;8.580;2023-07-02T09:16:29;19.07;;;14.17;;
32786;SDS011;19139;49.372;8.580;2023-07-02T09:19:07;21.70;;;15.10;;
32786;SDS011;19139;49.372;8.580;2023-07-02T09:21:44;22.60;;;14.47;;
32786;SDS011;19139;49.372;8.580;2023-07-02T09:24:13;19.27;;;13.70;;
32786;SDS011;19139;49.372;8.580;2023-07-02T09:26:45;19.47;;;14.33;;
32786;SDS011;19139;49.372;8.580;2023-07-02T09:29:13;19.23;;;13.57;;
32786;SDS011;19139;49.372;8.580;2023-07-02T09:31:43;18.43;;;13.80;;
32786;SDS011;19139;49.372;8.580;2023-07-02T09:34:31;20.87;;;14.07;;
32786;SDS011;19139;49.372;8.580;2023-07-02T09:36:59;17.47;;;13.03;;
32786;SDS011;19139;49.372;8.580;2023-07-02T09:39:30;18.37;;;13.90;;
32786;SDS011;19139;49.372;8.580;2023-07-02T09:42:00;19.27;;;14.50;;
32786;SDS011;19139;49.372;8.580;2023-07-02T09:44:28;18.07;;;13.50;;
32786;SDS011;19139;49.372;8.580;2023-07-02T09:46:58;18.77;;;14.03;;
32786;SDS011;19139;49.372;8.580;2023-07-02T09:49:27;18.03;;;13.40;;
32786;SDS011;19139;49.372;8.580;2023-07-02T09:52:03;17.23;;;13.43;;
32786;SDS011;19139;49.372;8.580;2023-07-02T09:54:34;18.73;;;13.93;;
32786;SDS011;19139;49.372;8.580;2023-07-02T09:57:01;18.20;;;13.07;;
32786;SDS011;19139;49.372;8.580;2023-07-02T09:59:29;21.47;;;14.17;;
32786;SDS011;19139;49.372;8.580;2023-07-02T10:01:56;18.87;;;13.37;;
32786;SDS011;19139;49.372;8.580;2023-07-02T10:04:24;18.87;;;13.77;;
32786;SDS011;19139;49.372;8.580;2023-07-02T10:06:51;16.67;;;13.30;;
32786;SDS011;19139;49.372;8.580;2023-07-02T10:09:21;19.17;;;14.37;;
32786;SDS011;19139;49.372;8.580;2023-07-02T10:12:00;18.27;;;12.80;;
32786;SDS011;19139;49.372;8.580;2023-07-02T10:14:27;17.17;;;13.60;;
32786;SDS011;19139;49.372;8.580;2023-07-02T10:17:05;18.40;;;13.43;;
32786;SDS011;19139;49.372;8.580;2023-07-02T10:19:32;18.53;;;13.37;;
32786;SDS011;19139;49.372;8.580;2023-07-02T10:22:02;18.63;;;12.83;;
32786;SDS011;19139;49.372;8.580;2023-07-02T10:24:30;16.00;;;12.37;;
32786;SDS011;19139;49.372;8.580;2023-07-02T10:26:58;16.33;;;13.20;;
32786;SDS011;19139;49.372;8.580;2023-07-02T10:29:26;14.83;;;12.30;;
32786;SDS011;19139;49.372;8.580;2023-07-02T10:31:54;18.47;;;13.67;;
32786;SDS011;19139;49.372;8.580;2023-07-02T10:34:29;18.17;;;13.13;;
32786;SDS011;19139;49.372;8.580;2023-07-02T10:36:56;17.37;;;14.20;;
32786;SDS011;19139;49.372;8.580;2023-07-02T10:39:23;17.63;;;13.57;;
32786;SDS011;19139;49.372;8.580;2023-07-02T10:41:49;16.07;;;12.23;;
32786;SDS011;19139;49.372;8.580;2023-07-02T10:44:16;19.03;;;13.60;;
32786;SDS011;19139;49.372;8.580;2023-07-02T10:46:43;18.73;;;12.60;;
32786;SDS011;19139;49.372;8.580;2023-07-02T10:49:16;16.07;;;12.70;;
32786;SDS011;19139;49.372;8.580;2023-07-02T10:51:44;16.07;;;12.23;;
32786;SDS011;19139;49.372;8.580;2023-07-02T10:54:10;16.73;;;12.10;;
32786;SDS011;19139;49.372;8.580;2023-07-02T10:56:37;16.80;;;11.93;;
32786;SDS011;19139;49.372;8.580;2023-07-02T10:59:04;15.27;;;12.40;;
32786;SDS011;19139;49.372;8.580;2023-07-02T11:01:31;17.90;;;12.50;;
32786;SDS011;19139;49.372;8.580;2023-07-02T11:04:02;15.47;;;12.73;;
32786;SDS011;19139;49.372;8.580;2023-07-02T11:06:30;16.13;;;12.17;;
32786;SDS011;19139;49.372;8.580;2023-07-02T11:09:01;15.40;;;11.80;;
32786;SDS011;19139;49.372;8.580;2023-07-02T11:11:28;17.13;;;12.40;;
32786;SDS011;19139;49.372;8.580;2023-07-02T11:13:55;15.43;;;12.23;;
32786;SDS011;19139;49.372;8.580;2023-07-02T11:16:23;16.43;;;12.93;;
32786;SDS011;19139;49.372;8.580;2023-07-02T11:19:07;17.57;;;12.73;;
32786;SDS011;19139;49.372;8.580;2023-07-02T11:21:35;14.00;;;11.23;;
32786;SDS011;19139;49.372;8.580;2023-07-02T11:24:03;13.80;;;11.40;;
32786;SDS011;19139;49.372;8.580;2023-07-02T11:26:38;15.07;;;12.37;;
32786;SDS011;19139;49.372;8.580;2023-07-02T11:29:11;17.30;;;12.33;;
32786;SDS011;19139;49.372;8.580;2023-07-02T11:31:39;14.63;;;12.17;;
32786;SDS011;19139;49.372;8.580;2023-07-02T11:34:15;15.20;;;11.07;;
32786;SDS011;19139;49.372;8.580;2023-07-02T11:36:44;15.47;;;12.00;;
32786;SDS011;19139;49.372;8.580;2023-07-02T11:39:12;13.87;;;11.43;;
32786;SDS011;19139;49.372;8.580;2023-07-02T11:41:40;14.53;;;11.77;;
32786;SDS011;19139;49.372;8.580;2023-07-02T11:44:10;16.13;;;12.87;;
32786;SDS011;19139;49.372;8.580;2023-07-02T11:46:37;14.53;;;11.83;;
32786;SDS011;19139;49.372;8.580;2023-07-02T11:49:04;15.77;;;12.50;;
32786;SDS011;19139;49.372;8.580;2023-07-02T11:51:31;16.10;;;12.27;;
32786;SDS011;19139;49.372;8.580;2023-07-02T11:53:57;16.50;;;12.13;;
32786;SDS011;19139;49.372;8.580;2023-07-02T11:56:24;12.90;;;11.00;;
32786;SDS011;19139;49.372;8.580;2023-07-02T11:58:51;14.83;;;11.87;;
32786;SDS011;19139;49.372;8.580;2023-07-02T12:01:17;16.70;;;12.43;;
32786;SDS011;19139;49.372;8.580;2023-07-02T12:03:44;14.00;;;11.37;;
32786;SDS011;19139;49.372;8.580;2023-07-02T12:06:11;15.03;;;11.77;;
32786;SDS011;19139;49.372;8.580;2023-07-02T12:08:38;15.20;;;11.37;;
32786;SDS011;19139;49.372;8.580;2023-07-02T12:11:05;13.87;;;11.17;;
32786;SDS011;19139;49.372;8.580;2023-07-02T12:13:31;13.10;;;11.00;;
32786;SDS011;19139;49.372;8.580;2023-07-02T12:15:58;13.93;;;11.27;;
32786;SDS011;19139;49.372;8.580;2023-07-02T12:18:24;13.87;;;10.90;;
32786;SDS011;19139;49.372;8.580;2023-07-02T12:20:51;13.63;;;10.87;;
32786;SDS011;19139;49.372;8.580;2023-07-02T12:23:18;16.13;;;11.73;;
32786;SDS011;19139;49.372;8.580;2023-07-02T12:25:44;12.20;;;10.83;;
32786;SDS011;19139;49.372;8.580;2023-07-02T12:28:11;13.87;;;11.03;;
32786;SDS011;19139;49.372;8.580;2023-07-02T12:30:39;15.27;;;10.90;;
32786;SDS011;19139;49.372;8.580;2023-07-02T12:33:05;13.63;;;11.20;;
32786;SDS011;19139;49.372;8.580;2023-07-02T12:35:32;13.77;;;10.77;;
32786;SDS011;19139;49.372;8.580;2023-07-02T12:37:59;15.17;;;11.07;;
32786;SDS011;19139;49.372;8.580;2023-07-02T12:40:26;13.03;;;11.07;;
32786;SDS011;19139;49.372;8.580;2023-07-02T12:42:52;14.53;;;10.80;;
32786;SDS011;19139;49.372;8.580;2023-07-02T12:45:19;14.83;;;11.17;;
32786;SDS011;19139;49.372;8.580;2023-07-02T12:47:47;14.10;;;11.20;;
32786;SDS011;19139;49.372;8.580;2023-07-02T12:50:14;15.03;;;12.13;;
32786;SDS011;19139;49.372;8.580;2023-07-02T12:52:40;13.90;;;11.30;;
32786;SDS011;19139;49.372;8.580;2023-07-02T12:55:07;14.00;;;11.27;;
32786;SDS011;19139;49.372;8.580;2023-07-02T12:57:34;14.30;;;11.10;;
32786;SDS011;19139;49.372;8.580;2023-07-02T13:00:01;14.00;;;11.87;;
32786;SDS011;19139;49.372;8.580;2023-07-02T13:02:31;13.33;;;11.03;;
32786;SDS011;19139;49.372;8.580;2023-07-02T13:04:58;14.27;;;10.57;;
32786;SDS011;19139;49.372;8.580;2023-07-02T13:07:25;12.73;;;10.93;;
32786;SDS011;19139;49.372;8.580;2023-07-02T13:09:52;13.03;;;10.50;;
32786;SDS011;19139;49.372;8.580;2023-07-02T13:12:18;12.73;;;10.13;;
32786;SDS011;19139;49.372;8.580;2023-07-02T13:14:46;14.80;;;10.90;;
32786;SDS011;19139;49.372;8.580;2023-07-02T13:17:12;14.43;;;11.73;;
32786;SDS011;19139;49.372;8.580;2023-07-02T13:19:39;11.27;;;10.03;;
32786;SDS011;19139;49.372;8.580;2023-07-02T13:22:05;13.90;;;11.17;;
32786;SDS011;19139;49.372;8.580;2023-07-02T13:24:32;13.73;;;11.10;;
32786;SDS011;19139;49.372;8.580;2023-07-02T13:27:02;14.20;;;11.33;;
32786;SDS011;19139;49.372;8.580;2023-07-02T13:29:30;14.97;;;11.07;;
32786;SDS011;19139;49.372;8.580;2023-07-02T13:31:57;13.17;;;10.37;;
32786;SDS011;19139;49.372;8.580;2023-07-02T13:34:25;13.33;;;11.27;;
32786;SDS011;19139;49.372;8.580;2023-07-02T13:36:52;12.20;;;10.13;;
32786;SDS011;19139;49.372;8.580;2023-07-02T13:39:18;12.77;;;10.93;;
32786;SDS011;19139;49.372;8.580;2023-07-02T13:41:45;14.10;;;11.03;;
32786;SDS011;19139;49.372;8.580;2023-07-02T13:44:12;13.67;;;10.87;;
32786;SDS011;19139;49.372;8.580;2023-07-02T13:46:39;13.77;;;10.57;;
32786;SDS011;19139;49.372;8.580;2023-07-02T13:49:05;13.23;;;11.07;;
32786;SDS011;19139;49.372;8.580;2023-07-02T13:51:32;14.10;;;11.07;;
32786;SDS011;19139;49.372;8.580;2023-07-02T13:53:59;13.83;;;10.30;;
32786;SDS011;19139;49.372;8.580;2023-07-02T13:56:25;14.20;;;11.07;;
32786;SDS011;19139;49.372;8.580;2023-07-02T14:01:22;14.83;;;11.03;;
32786;SDS011;19139;49.372;8.580;2023-07-02T14:03:49;13.17;;;9.97;;
32786;SDS011;19139;49.372;8.580;2023-07-02T14:06:17;13.67;;;11.03;;
32786;SDS011;19139;49.372;8.580;2023-07-02T14:08:43;13.73;;;11.07;;
32786;SDS011;19139;49.372;8.580;2023-07-02T14:11:14;13.80;;;10.37;;
32786;SDS011;19139;49.372;8.580;2023-07-02T14:13:40;13.67;;;10.33;;
32786;SDS011;19139;49.372;8.580;2023-07-02T14:16:07;12.77;;;10.53;;
32786;SDS011;19139;49.372;8.580;2023-07-02T14:18:34;14.20;;;11.03;;
32786;SDS011;19139;49.372;8.580;2023-07-02T14:21:00;12.53;;;9.93;;
32786;SDS011;19139;49.372;8.580;2023-07-02T14:23:27;13.17;;;10.53;;
32786;SDS011;19139;49.372;8.580;2023-07-02T14:25:54;13.03;;;10.43;;
32786;SDS011;19139;49.372;8.580;2023-07-02T14:28:21;12.90;;;10.50;;
32786;SDS011;19139;49.372;8.580;2023-07-02T14:30:47;12.50;;;10.57;;
32786;SDS011;19139;49.372;8.580;2023-07-02T14:33:14;12.40;;;10.67;;
32786;SDS011;19139;49.372;8.580;2023-07-02T14:35:41;12.83;;;10.33;;
32786;SDS011;19139;49.372;8.580;2023-07-02T14:38:07;13.30;;;10.10;;
32786;SDS011;19139;49.372;8.580;2023-07-02T14:40:34;11.27;;;10.03;;
32786;SDS011;19139;49.372;8.580;2023-07-02T14:43:01;12.47;;;10.33;;